Time;durP1;ratioP1;P1;durP2;ratioP2;P2;SDS_P1;SDS_P2;PMS_P1;PMS_P2;Temp;Humidity;BMP_temperature;BMP_pressure;BME280_temperature;BME280_humidity;BME280_pressure;Samples;Min_cycle;Max_cycle;Signal;HPM_P1;HPM_P2
2023/08/24 00:01:32;;;;;;;0.90;0.90;;;;;;;23.27;69.26;97053.38;5040710;28;20057;-67
2023/08/24 00:03:59;;;;;;;0.95;0.95;;;;;;;22.68;70.72;97029.81;5042201;28;20052;-67
2023/08/24 00:06:25;;;;;;;1.00;1.00;;;;;;;22.89;70.87;97055.38;5042508;28;20051;-67
2023/08/24 00:08:52;;;;;;;1.10;1.10;;;;;;;22.96;70.71;97051.53;5042235;28;20056;-67
2023/08/24 00:11:19;;;;;;;1.00;1.00;;;;;;;23.04;69.98;97052.91;5040780;28;20044;-67
2023/08/24 00:13:53;;;;;;;1.10;1.10;;;;;;;23.15;69.52;97050.53;5041970;28;20535;-67
2023/08/24 00:16:20;;;;;;;1.00;1.00;;;;;;;23.22;69.22;97042.59;5042182;28;20127;-67
2023/08/24 00:18:48;;;;;;;0.90;0.90;;;;;;;23.19;69.35;97042.72;5041661;28;20126;-67
2023/08/24 00:21:22;;;;;;;0.90;0.90;;;;;;;23.26;68.39;97031.22;5041694;28;20041;-67
2023/08/24 00:23:50;;;;;;;1.10;1.10;;;;;;;23.08;68.65;96991.41;5041817;28;20109;-67
2023/08/24 00:26:17;;;;;;;1.10;1.10;;;;;;;23.28;68.51;97040.03;5046762;28;20061;-68
2023/08/24 00:28:45;;;;;;;1.00;1.00;;;;;;;23.29;68.75;97021.81;5040266;28;20717;-68
2023/08/24 00:31:12;;;;;;;0.93;0.93;;;;;;;23.36;68.02;97030.06;5041636;28;20265;-67
2023/08/24 00:33:39;;;;;;;1.00;1.00;;;;;;;23.34;67.62;97021.25;5039578;28;20065;-67
2023/08/24 00:36:06;;;;;;;1.10;1.10;;;;;;;23.14;67.64;96986.78;5041768;28;20067;-67
2023/08/24 00:38:33;;;;;;;1.00;1.00;;;;;;;23.32;68.32;97026.56;5044321;28;20069;-66
2023/08/24 00:41:00;;;;;;;0.90;0.90;;;;;;;23.14;69.55;97023.50;5044392;28;20045;-66
2023/08/24 00:43:28;;;;;;;1.10;1.10;;;;;;;23.15;69.86;97034.38;5029470;28;20538;-66
2023/08/24 00:46:00;;;;;;;1.10;1.10;;;;;;;23.27;69.85;97038.44;5024717;28;20535;-66
2023/08/24 00:48:28;;;;;;;0.90;0.90;;;;;;;22.98;70.36;97003.84;5024406;28;20553;-66
2023/08/24 00:51:00;;;;;;;1.00;1.00;;;;;;;22.65;72.79;97025.88;5023555;28;20051;-66
2023/08/24 00:53:28;;;;;;;0.90;0.90;;;;;;;22.97;71.18;97024.88;5024512;28;20114;-66
2023/08/24 00:55:55;;;;;;;1.00;1.00;;;;;;;22.82;71.95;97018.09;5022219;28;20160;-67
2023/08/24 00:58:23;;;;;;;1.00;1.00;;;;;;;22.67;71.77;96983.06;5022150;28;20049;-66
2023/08/24 01:00:52;;;;;;;1.00;1.00;;;;;;;22.88;72.14;97019.09;5022036;28;20045;-66
2023/08/24 01:03:21;;;;;;;1.10;1.10;;;;;;;22.86;72.11;97024.44;5024269;28;20056;-66
2023/08/24 01:05:48;;;;;;;1.10;1.10;;;;;;;22.88;72.34;97027.56;5023861;28;20630;-66
2023/08/24 01:08:16;;;;;;;1.00;1.00;;;;;;;22.78;72.76;97020.25;5023873;28;20531;-66
2023/08/24 01:11:02;;;;;;;1.10;1.10;;;;;;;22.50;74.05;97010.56;5023951;28;20447;-66
2023/08/24 01:13:43;;;;;;;0.90;0.90;;;;;;;22.71;73.52;97006.31;5022184;28;20065;-65
2023/08/24 01:16:18;;;;;;;0.98;0.98;;;;;;;22.54;72.47;96962.50;5023893;28;20064;-66
2023/08/24 01:18:45;;;;;;;1.10;1.10;;;;;;;22.87;72.15;97009.06;5023639;28;20064;-66
2023/08/24 01:21:14;;;;;;;0.93;0.93;;;;;;;22.99;71.91;97011.06;5023617;28;20056;-66
2023/08/24 01:23:53;;;;;;;1.17;1.17;;;;;;;22.99;71.52;97006.22;5023202;28;20509;-66
2023/08/24 01:26:20;;;;;;;1.00;1.00;;;;;;;23.02;71.46;97004.50;5009912;28;20049;-66
2023/08/24 01:28:47;;;;;;;1.00;1.00;;;;;;;23.03;71.01;96983.50;5023229;28;20048;-66
2023/08/24 01:31:16;;;;;;;0.93;0.93;;;;;;;22.92;72.27;97000.00;5023087;28;20076;-66
2023/08/24 01:33:44;;;;;;;1.00;1.00;;;;;;;22.85;71.98;97001.03;5023554;28;20057;-66
2023/08/24 01:36:13;;;;;;;0.90;0.90;;;;;;;22.78;71.86;96994.81;5023260;28;20057;-67
2023/08/24 01:38:41;;;;;;;1.00;1.00;;;;;;;22.86;71.27;97004.66;5021902;28;20045;-67
2023/08/24 01:41:18;;;;;;;0.90;0.90;;;;;;;22.57;71.25;96961.59;5024040;28;20053;-67
2023/08/24 01:43:50;;;;;;;0.90;0.90;;;;;;;22.87;71.43;97004.19;5039041;28;20067;-67
2023/08/24 01:46:20;;;;;;;0.93;0.93;;;;;;;22.94;71.22;97005.97;5043460;28;20056;-67
2023/08/24 01:48:48;;;;;;;0.98;0.98;;;;;;;22.94;71.21;96997.50;5043033;28;20079;-66
2023/08/24 01:51:16;;;;;;;0.90;0.90;;;;;;;22.77;70.73;96957.31;5043272;28;20049;-67
2023/08/24 01:53:43;;;;;;;1.00;1.00;;;;;;;23.05;70.19;97003.59;5043510;28;20121;-66
2023/08/24 01:56:15;;;;;;;0.90;0.90;;;;;;;23.12;69.53;96986.44;5041258;28;20053;-67
2023/08/24 01:58:42;;;;;;;0.98;0.98;;;;;;;23.13;69.89;96988.78;5043662;28;20049;-67
2023/08/24 02:01:10;;;;;;;0.90;0.90;;;;;;;23.21;69.01;96983.69;5042268;28;20421;-66
2023/08/24 02:03:38;;;;;;;1.00;1.00;;;;;;;23.18;69.22;96995.91;5041021;28;20061;-65
2023/08/24 02:06:06;;;;;;;1.10;1.10;;;;;;;23.17;69.52;96978.19;5042984;28;20167;-67
2023/08/24 02:08:34;;;;;;;1.00;1.00;;;;;;;22.65;69.33;96892.34;5041116;28;20048;-66
2023/08/24 02:11:01;;;;;;;1.00;1.00;;;;;;;23.22;68.80;96980.41;5042223;28;20049;-67
2023/08/24 02:13:28;;;;;;;0.88;0.88;;;;;;;22.74;69.46;96917.88;5042183;28;20135;-66
2023/08/24 02:16:05;;;;;;;1.00;1.00;;;;;;;22.89;70.28;96972.66;5040515;28;20531;-66
2023/08/24 02:18:32;;;;;;;0.90;0.90;;;;;;;22.79;70.77;96973.78;5041747;28;20053;-67
2023/08/24 02:20:59;;;;;;;0.90;0.90;;;;;;;22.88;70.28;96974.69;5039995;28;20543;-67
2023/08/24 02:23:26;;;;;;;1.02;1.02;;;;;;;22.81;70.86;96977.75;5040327;28;20422;-66
2023/08/24 02:25:52;;;;;;;1.10;1.10;;;;;;;22.73;70.24;96958.66;5040083;28;20504;-67
2023/08/24 02:28:19;;;;;;;1.00;1.00;;;;;;;22.42;70.33;96894.25;5041836;28;20384;-66
2023/08/24 02:30:46;;;;;;;1.00;1.00;;;;;;;22.74;70.00;96951.75;5041608;28;20044;-67
2023/08/24 02:33:13;;;;;;;0.90;0.90;;;;;;;23.05;69.64;96978.16;5041841;28;20474;-65
2023/08/24 02:35:39;;;;;;;1.00;1.00;;;;;;;22.79;69.57;96956.84;5041644;28;20420;-66
2023/08/24 02:38:06;;;;;;;0.98;0.98;;;;;;;23.01;69.73;96980.34;5041137;28;20052;-67
2023/08/24 02:40:32;;;;;;;0.93;0.93;;;;;;;22.89;69.96;96981.16;5042361;28;20048;-67
2023/08/24 02:42:59;;;;;;;1.00;1.00;;;;;;;22.82;70.45;96978.53;5041025;28;20102;-67
2023/08/24 02:45:26;;;;;;;0.90;0.90;;;;;;;22.70;71.04;96987.81;5042158;28;20045;-67
2023/08/24 02:47:52;;;;;;;0.88;0.88;;;;;;;22.77;70.42;96982.72;5042553;28;20128;-66
2023/08/24 02:50:20;;;;;;;0.90;0.90;;;;;;;21.95;70.48;96865.09;5040391;28;20054;-67
2023/08/24 02:52:46;;;;;;;1.00;1.00;;;;;;;22.66;70.87;96982.28;5042391;28;20053;-67
2023/08/24 02:55:13;;;;;;;0.80;0.80;;;;;;;22.48;70.77;96948.09;5042402;28;20601;-65
2023/08/24 02:57:40;;;;;;;0.95;0.95;;;;;;;22.57;70.86;96967.25;5042350;28;20045;-67
2023/08/24 03:00:07;;;;;;;1.00;1.00;;;;;;;22.30;71.29;96931.72;5040242;28;20449;-67
2023/08/24 03:02:34;;;;;;;0.90;0.90;;;;;;;22.56;71.29;96965.66;5041273;28;20048;-66
2023/08/24 03:05:00;;;;;;;0.88;0.88;;;;;;;22.61;71.30;96967.91;5041334;28;20085;-67
2023/08/24 03:07:27;;;;;;;0.90;0.90;;;;;;;22.55;71.53;96958.41;5039954;28;20595;-66
2023/08/24 03:09:54;;;;;;;0.90;0.90;;;;;;;22.56;71.56;96965.66;5041022;28;20295;-66
2023/08/24 03:12:21;;;;;;;1.00;1.00;;;;;;;22.66;71.29;96976.63;5041230;28;20053;-66
2023/08/24 03:14:51;;;;;;;0.90;0.90;;;;;;;22.66;71.09;96970.16;5040959;28;20061;-66
2023/08/24 03:17:18;;;;;;;0.90;0.90;;;;;;;22.65;71.06;96965.78;5041353;28;20045;-66
2023/08/24 03:19:44;;;;;;;0.90;0.90;;;;;;;22.53;71.33;96960.91;5039476;28;20548;-66
2023/08/24 03:22:11;;;;;;;1.00;1.00;;;;;;;22.55;71.51;96964.06;5039369;28;20068;-65
2023/08/24 03:24:38;;;;;;;0.95;0.95;;;;;;;22.51;71.59;96964.13;5040694;28;20049;-66
2023/08/24 03:27:04;;;;;;;1.00;1.00;;;;;;;22.60;71.54;96977.63;5040830;28;20569;-66
2023/08/24 03:29:31;;;;;;;1.00;1.00;;;;;;;22.56;71.22;96972.09;5041255;28;20053;-67
2023/08/24 03:31:58;;;;;;;0.80;0.80;;;;;;;22.48;71.67;96960.19;5040798;28;20443;-67
2023/08/24 03:34:25;;;;;;;0.93;0.93;;;;;;;22.64;71.92;96970.63;5039574;28;20064;-67
2023/08/24 03:36:52;;;;;;;0.95;0.95;;;;;;;22.30;71.89;96931.72;5040721;28;20053;-67
2023/08/24 03:39:18;;;;;;;1.00;1.00;;;;;;;22.53;71.75;96969.38;5040857;28;20064;-67
2023/08/24 03:41:45;;;;;;;1.08;1.08;;;;;;;22.49;71.91;96966.66;5040820;28;20041;-67
2023/08/24 03:44:11;;;;;;;0.90;0.90;;;;;;;22.51;71.94;96963.38;5019228;28;20766;-67
2023/08/24 03:46:38;;;;;;;0.90;0.90;;;;;;;22.63;71.22;96971.06;5019015;28;20057;-67
2023/08/24 03:49:05;;;;;;;0.80;0.80;;;;;;;22.41;71.37;96937.06;5019395;28;20606;-66
2023/08/24 03:51:31;;;;;;;0.90;0.90;;;;;;;22.65;71.36;96985.53;5020811;28;20046;-67
2023/08/24 03:53:58;;;;;;;0.98;0.98;;;;;;;22.74;70.68;96963.06;5020546;28;20045;-67
2023/08/24 03:56:25;;;;;;;0.90;0.90;;;;;;;22.75;70.51;96962.59;5020517;28;20064;-67
2023/08/24 03:58:51;;;;;;;0.90;0.90;;;;;;;22.43;70.92;96929.69;5019405;28;20048;-67
2023/08/24 04:01:18;;;;;;;1.00;1.00;;;;;;;22.30;70.71;96909.13;5020931;28;20049;-67
2023/08/24 04:03:45;;;;;;;1.08;1.08;;;;;;;22.98;69.94;96975.59;5020954;28;20484;-67
2023/08/24 04:06:11;;;;;;;1.00;1.00;;;;;;;22.48;70.19;96892.44;5020192;28;20492;-66
2023/08/24 04:08:38;;;;;;;0.90;0.90;;;;;;;23.09;69.62;96970.38;5019117;28;20088;-66
2023/08/24 04:11:05;;;;;;;1.10;1.10;;;;;;;22.79;69.36;96909.63;5020364;28;20046;-67
2023/08/24 04:13:32;;;;;;;1.02;1.02;;;;;;;23.21;68.98;96963.91;5020654;28;20140;-65
2023/08/24 04:15:58;;;;;;;1.00;1.00;;;;;;;23.37;68.36;96967.41;5021429;28;20512;-66
2023/08/24 04:18:25;;;;;;;1.10;1.10;;;;;;;23.43;68.10;96973.25;5019636;28;20487;-67
2023/08/24 04:20:53;;;;;;;1.00;1.00;;;;;;;23.59;67.50;96973.91;5020282;28;20451;-67
2023/08/24 04:23:26;;;;;;;1.20;1.20;;;;;;;23.49;67.56;96954.50;5020479;28;20048;-67
2023/08/24 04:25:53;;;;;;;;;;;;;;;23.67;67.06;96968.78;5018882;28;20559;-67
2023/08/24 04:28:20;;;;;;;0.90;0.90;;;;;;;23.41;67.67;96972.97;5018765;28;19928;-67
2023/08/24 04:30:54;;;;;;;1.00;1.00;;;;;;;23.11;67.98;96922.69;5019774;28;20107;-67
2023/08/24 04:33:21;;;;;;;1.10;1.10;;;;;;;23.53;68.47;96955.16;5020382;28;20650;-67
2023/08/24 04:35:48;;;;;;;1.10;1.10;;;;;;;23.74;68.32;96965.72;5018123;28;20069;-67
2023/08/24 04:38:16;;;;;;;1.10;1.10;;;;;;;23.82;67.77;96967.81;5019936;28;20081;-67
2023/08/24 04:40:53;;;;;;;1.10;1.10;;;;;;;23.95;67.53;96958.50;5018416;28;20277;-66
2023/08/24 04:43:21;;;;;;;1.00;1.00;;;;;;;24.05;67.26;96958.13;5032673;28;20057;-67
2023/08/24 04:45:51;;;;;;;1.13;1.13;;;;;;;24.28;65.81;96960.44;5039566;28;20495;-67
2023/08/24 04:48:18;;;;;;;1.10;1.10;;;;;;;24.25;65.52;96921.75;5038391;28;20045;-67
2023/08/24 04:50:46;;;;;;;0.90;0.90;;;;;;;24.52;65.67;96964.38;5039904;28;20053;-67
2023/08/24 04:53:14;;;;;;;1.27;1.27;;;;;;;24.63;65.08;96964.75;5039434;28;20483;-67
2023/08/24 04:55:42;;;;;;;1.25;1.25;;;;;;;24.57;65.33;96965.81;5039558;28;20049;-66
2023/08/24 04:58:09;;;;;;;1.13;1.13;;;;;;;24.62;64.40;96966.00;5039805;28;20079;-67
2023/08/24 05:00:39;;;;;;;1.20;1.20;;;;;;;24.54;63.90;96916.56;5037831;28;20048;-67
2023/08/24 05:03:06;;;;;;;1.15;1.15;;;;;;;25.17;63.25;96976.31;5039439;28;20068;-66
2023/08/24 05:05:35;;;;;;;1.10;1.10;;;;;;;25.33;62.07;96978.09;5037608;28;20131;-66
2023/08/24 05:08:05;;;;;;;1.20;1.20;;;;;;;25.42;61.71;96980.22;5039251;28;20535;-66
2023/08/24 05:10:33;;;;;;;1.25;1.25;;;;;;;24.42;64.77;96937.25;5037686;28;20064;-67
2023/08/24 05:13:00;;;;;;;1.20;1.20;;;;;;;25.02;64.51;96975.31;5038735;28;20132;-65
2023/08/24 05:15:27;;;;;;;1.00;1.00;;;;;;;25.49;63.42;96979.88;5039474;28;20064;-65
2023/08/24 05:17:55;;;;;;;1.08;1.08;;;;;;;25.91;62.40;96978.06;5040330;28;20045;-67
2023/08/24 05:20:22;;;;;;;1.38;1.38;;;;;;;26.09;61.21;96989.41;5039001;28;20482;-66
2023/08/24 05:22:49;;;;;;;1.40;1.40;;;;;;;26.45;59.12;96978.00;5042590;28;20060;-67
2023/08/24 05:25:19;;;;;;;1.40;1.40;;;;;;;26.75;58.45;96979.84;5043080;28;20052;-66
2023/08/24 05:27:45;;;;;;;1.33;1.33;;;;;;;26.93;58.27;96979.78;5044693;28;20052;-66
2023/08/24 05:30:12;;;;;;;1.60;1.60;;;;;;;27.22;57.14;96977.09;5045219;28;20052;-67
2023/08/24 05:32:39;;;;;;;1.48;1.48;;;;;;;27.37;56.37;96972.31;5044936;28;20056;-66
2023/08/24 05:35:07;;;;;;;1.50;1.50;;;;;;;27.57;55.32;96978.19;5044438;28;20049;-67
2023/08/24 05:37:34;;;;;;;1.60;1.60;;;;;;;27.60;54.95;96965.84;5043215;28;20053;-67
2023/08/24 05:40:01;;;;;;;1.70;1.70;;;;;;;27.59;54.96;96969.97;5044843;28;20053;-67
2023/08/24 05:42:30;;;;;;;1.60;1.60;;;;;;;27.38;55.12;96948.28;5039277;28;20058;-67
2023/08/24 05:44:57;;;;;;;1.42;1.42;;;;;;;27.66;54.99;96980.97;5024010;28;20045;-67
2023/08/24 05:47:24;;;;;;;1.55;1.55;;;;;;;27.16;56.48;96979.03;5024447;28;20046;-67
2023/08/24 05:49:50;;;;;;;1.73;1.73;;;;;;;27.29;56.13;96979.63;5023906;28;20581;-68
2023/08/24 05:52:17;;;;;;;1.42;1.42;;;;;;;27.45;55.87;96976.38;5024148;28;20068;-67
2023/08/24 05:54:44;;;;;;;1.50;1.50;;;;;;;27.60;55.27;96987.84;5022701;28;20508;-67
2023/08/24 05:57:10;;;;;;;1.60;1.60;;;;;;;27.57;55.17;96944.03;5024174;28;20519;-66
2023/08/24 05:59:37;;;;;;;1.40;1.40;;;;;;;28.14;55.05;96984.56;5024124;28;20049;-67
2023/08/24 06:02:04;;;;;;;1.88;1.88;;;;;;;28.39;54.05;96989.72;5023875;28;20053;-68
2023/08/24 06:04:31;;;;;;;1.50;1.50;;;;;;;27.67;53.85;96971.16;5022037;28;20088;-67
2023/08/24 06:06:57;;;;;;;1.65;1.65;;;;;;;28.13;53.60;96998.06;5023200;28;20060;-69
2023/08/24 06:09:24;;;;;;;1.50;1.50;;;;;;;27.97;54.22;96984.25;5037067;28;20049;-74
2023/08/24 06:11:51;;;;;;;1.60;1.60;;;;;;;27.51;55.30;96968.75;5040406;28;20438;-60
2023/08/24 06:14:17;;;;;;;1.77;1.77;;;;;;;27.68;54.96;96915.00;5052358;28;20162;-69
2023/08/24 06:16:44;;;;;;;1.60;1.60;;;;;;;28.57;54.20;97008.75;5052463;28;20059;-72
2023/08/24 06:19:10;;;;;;;1.75;1.75;;;;;;;28.32;52.85;96953.06;5039923;28;20447;-59
2023/08/24 06:21:37;;;;;;;1.58;1.58;;;;;;;28.62;53.71;97030.88;5039768;28;20512;-67
2023/08/24 06:24:04;;;;;;;1.70;1.70;;;;;;;27.62;54.62;96985.28;5029049;28;20508;-60
2023/08/24 06:26:30;;;;;;;1.63;1.63;;;;;;;27.42;56.22;97028.56;5021754;28;20080;-74
2023/08/24 06:28:57;;;;;;;1.40;1.40;;;;;;;27.27;57.02;97030.53;5045403;28;20059;-61
2023/08/24 06:31:24;;;;;;;1.35;1.35;;;;;;;27.05;57.52;97024.28;5043714;28;20053;-72
2023/08/24 06:33:51;;;;;;;1.55;1.55;;;;;;;26.59;56.44;96904.25;5040276;28;20049;-70
2023/08/24 06:36:17;;;;;;;1.20;1.20;;;;;;;27.69;56.11;96999.94;5030978;28;20064;-65
2023/08/24 06:38:44;;;;;;;1.52;1.52;;;;;;;27.79;56.14;97024.22;5039179;28;20051;-60
2023/08/24 06:41:12;;;;;;;1.30;1.30;;;;;;;27.30;56.68;97026.72;5040155;28;20068;-74
2023/08/24 06:43:39;;;;;;;1.55;1.55;;;;;;;26.66;58.89;96982.72;5043379;28;20692;-62
2023/08/24 06:46:07;;;;;;;1.52;1.52;;;;;;;26.88;59.20;96983.28;5041335;28;20129;-65
2023/08/24 06:48:35;;;;;;;1.50;1.50;;;;;;;26.88;60.59;97042.97;5041412;28;20202;-67
2023/08/24 06:51:02;;;;;;;1.33;1.33;;;;;;;26.76;61.40;97049.66;5042051;28;20053;-66
2023/08/24 06:53:29;;;;;;;1.60;1.60;;;;;;;26.73;61.84;97050.59;5042610;28;20703;-73
2023/08/24 06:55:56;;;;;;;1.40;1.40;;;;;;;26.42;62.09;97024.41;5041067;28;20060;-60
2023/08/24 06:58:24;;;;;;;1.20;1.20;;;;;;;25.88;68.81;97047.09;5033103;28;20052;-63
2023/08/24 07:00:50;;;;;;;1.50;1.50;;;;;;;24.43;72.66;96875.75;5041455;28;20053;-68
2023/08/24 07:03:18;;;;;;;1.35;1.35;;;;;;;24.51;78.14;96957.16;5033522;28;20055;-78
2023/08/24 07:05:46;;;;;;;1.30;1.30;;;;;;;24.02;81.41;96913.75;5041213;28;20423;-61
2023/08/24 07:08:13;;;;;;;1.10;1.10;;;;;;;23.97;85.02;96945.47;5042196;28;20053;-65
2023/08/24 07:10:40;;;;;;;1.30;1.30;;;;;;;24.66;87.45;97031.84;5031104;28;20068;-65
2023/08/24 07:13:07;;;;;;;1.17;1.17;;;;;;;24.72;89.36;97038.47;5037399;28;20735;-69
2023/08/24 07:15:34;;;;;;;1.00;1.00;;;;;;;24.26;87.46;96990.50;5041261;28;20558;-68
2023/08/24 07:18:02;;;;;;;1.13;1.13;;;;;;;23.05;87.84;96788.84;5040710;28;20484;-66
2023/08/24 07:20:29;;;;;;;1.20;1.20;;;;;;;24.83;86.53;97030.34;5039731;28;20526;-61
2023/08/24 07:22:57;;;;;;;1.15;1.15;;;;;;;24.33;86.71;96957.03;5038905;28;20431;-64
2023/08/24 07:25:24;;;;;;;1.20;1.20;;;;;;;23.61;96.56;96971.41;5023849;28;20052;-66
2023/08/24 07:27:51;;;;;;;1.20;1.20;;;;;;;23.56;100.00;97047.56;5039306;28;20215;-74
2023/08/24 07:30:18;;;;;;;1.00;1.00;;;;;;;23.41;100.00;97061.38;5038498;28;20049;-74
2023/08/24 07:33:02;;;;;;;1.05;1.05;;;;;;;23.31;100.00;97061.75;5038871;28;20049;-67
2023/08/24 07:35:30;;;;;;;1.08;1.08;;;;;;;23.31;100.00;97033.47;5034298;28;20049;-63
2023/08/24 07:37:56;;;;;;;0.90;0.90;;;;;;;23.21;100.00;97040.22;5029058;28;20049;-63
2023/08/24 07:40:23;;;;;;;0.90;0.90;;;;;;;23.26;100.00;97019.91;5037045;28;20051;-72
2023/08/24 07:42:54;;;;;;;1.00;1.00;;;;;;;22.20;100.00;96904.63;5027909;28;20049;-72
2023/08/24 07:45:23;;;;;;;0.93;0.93;;;;;;;23.20;100.00;97061.25;5051961;28;20139;-68
2023/08/24 07:47:49;;;;;;;0.98;0.98;;;;;;;23.34;100.00;97055.19;5034970;28;20767;-68
2023/08/24 07:50:17;;;;;;;0.90;0.90;;;;;;;23.26;100.00;97056.66;5037645;28;20421;-62
2023/08/24 07:52:43;;;;;;;0.98;0.98;;;;;;;21.99;100.00;96837.56;5033276;28;20125;-66
2023/08/24 07:55:10;;;;;;;1.00;1.00;;;;;;;23.39;100.00;97051.78;5037890;28;20511;-60
2023/08/24 07:57:37;;;;;;;0.90;0.90;;;;;;;23.31;100.00;97056.09;5037262;28;20041;-72
2023/08/24 08:00:05;;;;;;;1.00;1.00;;;;;;;23.04;100.00;97031.09;5051909;28;20508;-60
2023/08/24 08:02:37;;;;;;;1.00;1.00;;;;;;;23.20;100.00;97049.97;5039078;28;20064;-69
2023/08/24 08:05:04;;;;;;;1.00;1.00;;;;;;;23.36;100.00;97061.94;5026604;28;20084;-74
2023/08/24 08:07:31;;;;;;;1.00;1.00;;;;;;;23.11;100.00;97007.47;5051555;28;20059;-72
2023/08/24 08:09:58;;;;;;;1.10;1.10;;;;;;;23.65;100.00;97061.78;5023419;28;20049;-60
2023/08/24 08:12:24;;;;;;;1.20;1.20;;;;;;;23.75;100.00;97074.78;5022019;28;20045;-58
2023/08/24 08:14:51;;;;;;;1.02;1.02;;;;;;;22.92;100.00;97022.63;5034278;28;20068;-67
2023/08/24 08:17:17;;;;;;;1.10;1.10;;;;;;;23.53;100.00;97062.63;5038470;28;20060;-59
2023/08/24 08:19:44;;;;;;;1.00;1.00;;;;;;;23.64;100.00;97074.38;5035812;28;20049;-69
2023/08/24 08:22:12;;;;;;;0.90;0.90;;;;;;;23.72;100.00;97092.69;5028918;28;20398;-60
2023/08/24 08:24:39;;;;;;;0.90;0.90;;;;;;;23.83;100.00;97073.28;5034532;28;20056;-61
2023/08/24 08:27:06;;;;;;;1.10;1.10;;;;;;;23.90;100.00;97082.31;5021507;28;20060;-66
2023/08/24 08:29:32;;;;;;;1.02;1.02;;;;;;;23.36;100.00;96979.19;5038930;28;20071;-64
2023/08/24 08:31:59;;;;;;;1.05;1.05;;;;;;;24.18;100.00;97074.91;5038135;28;20059;-61
2023/08/24 08:34:26;;;;;;;1.10;1.10;;;;;;;23.95;100.00;96970.56;5034356;28;20052;-69
2023/08/24 08:36:53;;;;;;;0.98;0.98;;;;;;;25.14;100.00;97065.16;5061704;28;20051;-70
2023/08/24 08:39:19;;;;;;;1.10;1.10;;;;;;;25.35;96.69;97012.50;5039950;28;20060;-59
2023/08/24 08:41:49;;;;;;;1.27;1.27;;;;;;;26.03;89.20;97042.44;5038805;28;20130;-58
2023/08/24 08:44:17;;;;;;;1.30;1.30;;;;;;;26.46;85.69;97036.41;5038899;28;20045;-73
2023/08/24 08:46:44;;;;;;;1.25;1.25;;;;;;;26.65;88.54;97064.34;5032952;28;20058;-59
2023/08/24 08:49:15;;;;;;;1.25;1.25;;;;;;;26.63;88.49;97057.53;5061138;28;20145;-74
2023/08/24 08:51:42;;;;;;;1.35;1.35;;;;;;;26.92;85.53;97012.31;5046360;28;20102;-61
2023/08/24 08:54:09;;;;;;;1.50;1.50;;;;;;;27.89;83.22;97051.41;5047621;28;20410;-59
2023/08/24 08:56:36;;;;;;;1.60;1.60;;;;;;;28.49;76.90;97053.16;5039560;28;20052;-71
2023/08/24 08:59:07;;;;;;;1.48;1.48;;;;;;;28.83;78.40;97038.25;5035869;28;20055;-73
2023/08/24 09:01:33;;;;;;;1.48;1.48;;;;;;;29.19;74.77;97037.88;5028803;28;20670;-58
2023/08/24 09:04:00;;;;;;;1.60;1.60;;;;;;;29.78;71.20;97045.06;5031923;28;20554;-69
2023/08/24 09:06:28;;;;;;;1.77;1.77;;;;;;;30.20;69.24;97002.47;5043345;28;20044;-71
2023/08/24 09:08:56;;;;;;;1.90;1.90;;;;;;;30.85;62.67;97021.69;5042612;28;20059;-60
2023/08/24 09:11:23;;;;;;;1.83;1.83;;;;;;;30.98;61.50;96984.09;5042779;28;20664;-60
2023/08/24 09:13:50;;;;;;;1.92;1.92;;;;;;;31.40;60.44;97018.53;5042511;28;20053;-69
2023/08/24 09:16:17;;;;;;;1.95;1.95;;;;;;;31.44;52.85;97024.03;5043117;28;20545;-60
2023/08/24 09:18:46;;;;;;;1.55;1.55;;;;;;;31.39;52.10;97007.59;5042470;28;20539;-69
2023/08/24 09:21:14;;;;;;;2.00;2.00;;;;;;;31.79;54.65;97010.19;5043184;28;20498;-60
2023/08/24 09:23:55;;;;;;;1.90;1.90;;;;;;;31.98;52.33;97002.78;5042579;28;20106;-59
2023/08/24 09:26:48;;;;;;;2.15;2.15;;;;;;;32.11;51.16;96997.34;5042429;28;20053;-59
2023/08/24 09:29:16;;;;;;;1.98;1.98;;;;;;;31.40;51.85;96955.53;5039268;28;20049;-61
2023/08/24 09:31:46;;;;;;;1.73;1.73;;;;;;;31.81;49.74;96996.13;5041011;28;20057;-68
2023/08/24 09:34:13;;;;;;;2.00;2.00;;;;;;;31.55;47.85;96995.47;5042369;28;20514;-59
2023/08/24 09:36:40;;;;;;;2.10;2.10;;;;;;;31.60;48.02;97014.78;5042963;28;20056;-69
2023/08/24 09:39:07;;;;;;;1.63;1.63;;;;;;;31.89;47.63;96986.56;5042145;28;20599;-69
2023/08/24 09:41:48;;;;;;;2.00;2.00;;;;;;;31.54;46.03;96913.69;5042158;28;20091;-59
2023/08/24 09:44:17;;;;;;;1.60;1.60;;;;;;;32.35;45.89;96983.34;5052675;28;20562;-69
2023/08/24 09:46:44;;;;;;;1.50;1.50;;;;;;;32.61;45.68;96971.72;5061932;28;20503;-60
2023/08/24 09:49:11;;;;;;;1.77;1.77;;;;;;;33.03;43.30;96963.69;5056231;28;20045;-71
2023/08/24 09:51:41;;;;;;;2.08;2.08;;;;;;;32.92;43.97;96966.56;5041680;28;20060;-60
2023/08/24 09:54:09;;;;;;;2.05;2.05;;;;;;;32.11;44.46;96865.47;5041517;28;20132;-60
2023/08/24 09:56:40;;;;;;;1.90;1.90;;;;;;;32.25;44.88;96927.53;5040789;28;20786;-69
2023/08/24 09:59:17;;;;;;;2.00;2.00;;;;;;;32.28;45.60;96955.16;5031268;28;20052;-59
2023/08/24 10:01:48;;;;;;;1.85;1.85;;;;;;;32.52;45.94;96951.88;5022518;28;20049;-71
2023/08/24 10:04:18;;;;;;;1.90;1.90;;;;;;;32.55;43.54;96899.97;5031780;28;20115;-72
2023/08/24 10:06:49;;;;;;;1.80;1.80;;;;;;;33.10;43.22;96945.91;5027367;28;20049;-60
2023/08/24 10:09:25;;;;;;;1.75;1.75;;;;;;;33.08;42.25;96942.81;5036660;28;20045;-66
2023/08/24 10:11:58;;;;;;;1.92;1.92;;;;;;;33.31;42.00;96929.97;5041168;28;20682;-58
2023/08/24 10:15:04;;;;;;;2.20;2.20;;;;;;;33.92;41.33;96931.94;5037578;28;20049;-64
2023/08/24 10:17:32;;;;;;;1.83;1.83;;;;;;;33.46;41.91;96852.94;4967885;28;20515;-68
2023/08/24 10:20:08;;;;;;;2.00;2.00;;;;;;;34.30;39.57;96919.47;4979012;28;20056;-61
2023/08/24 10:22:37;;;;;;;1.75;1.75;;;;;;;34.50;38.71;96919.09;5013911;28;20053;-66
2023/08/24 10:25:05;;;;;;;1.92;1.92;;;;;;;34.56;38.05;96911.19;5091849;28;20048;-66
2023/08/24 10:27:32;;;;;;;1.80;1.80;;;;;;;34.43;39.55;96879.41;5062166;28;20044;-68
2023/08/24 10:29:59;;;;;;;1.80;1.80;;;;;;;33.66;39.26;96714.63;5031682;28;20048;-61
2023/08/24 10:32:27;;;;;;;2.08;2.08;;;;;;;34.89;37.07;96856.25;5032684;28;20053;-72
2023/08/24 10:34:54;;;;;;;2.58;2.47;;;;;;;34.86;39.39;96855.22;5041443;28;20045;-65
2023/08/24 10:37:27;;;;;;;2.15;2.15;;;;;;;35.44;36.35;96890.31;5039683;28;20610;-61
2023/08/24 10:39:54;;;;;;;2.28;2.28;;;;;;;35.57;37.11;96890.41;5041514;28;20103;-60
2023/08/24 10:42:21;;;;;;;2.00;2.00;;;;;;;35.35;36.55;96824.34;5041991;28;20435;-59
2023/08/24 10:44:49;;;;;;;1.95;1.95;;;;;;;36.06;36.33;96873.81;5028554;28;20064;-61
2023/08/24 10:47:25;;;;;;;2.17;2.17;;;;;;;36.17;36.25;96886.00;5021408;28;20111;-61
2023/08/24 10:49:55;;;;;;;2.35;2.35;;;;;;;36.42;35.86;96864.41;5037484;28;20111;-74
2023/08/24 10:52:25;;;;;;;2.38;2.35;;;;;;;36.48;34.59;96852.78;5032976;28;20041;-60
2023/08/24 10:54:53;;;;;;;2.67;2.58;;;;;;;36.25;35.45;96826.34;5038008;28;20099;-70
2023/08/24 10:57:21;;;;;;;2.15;2.15;;;;;;;36.69;35.45;96839.28;5039319;28;20049;-69
2023/08/24 11:00:09;;;;;;;2.20;2.20;;;;;;;36.86;34.62;96830.38;5027221;28;20060;-71
2023/08/24 11:02:55;;;;;;;2.10;2.10;;;;;;;36.98;34.46;96828.84;5020656;28;20056;-61
2023/08/24 11:05:30;;;;;;;2.40;2.33;;;;;;;37.16;33.49;96816.44;5040559;28;20131;-63
2023/08/24 11:07:59;;;;;;;1.95;1.95;;;;;;;37.05;34.95;96810.88;5040774;28;20045;-61
2023/08/24 11:10:31;;;;;;;2.20;2.20;;;;;;;37.29;34.27;96784.69;5040405;28;20079;-75
2023/08/24 11:13:09;;;;;;;2.17;2.17;;;;;;;37.34;34.10;96752.00;5024231;28;20053;-75
2023/08/24 11:15:57;;;;;;;2.20;2.20;;;;;;;37.77;33.49;96790.00;5038466;28;20048;-61
2023/08/24 11:18:27;;;;;;;2.05;2.05;;;;;;;37.72;33.00;96759.06;5035828;28;20049;-71
2023/08/24 11:20:56;;;;;;;2.22;2.22;;;;;;;37.97;33.61;96785.59;5025209;28;20046;-61
2023/08/24 11:23:26;;;;;;;2.25;2.25;;;;;;;37.61;33.16;96736.16;5027495;28;20443;-70
2023/08/24 11:25:57;;;;;;;2.30;2.30;;;;;;;37.99;33.06;96782.94;5040064;28;20150;-57
2023/08/24 11:28:25;;;;;;;2.35;2.33;;;;;;;36.50;34.38;96787.38;5041736;28;20053;-70
2023/08/24 11:30:54;;;;;;;1.92;1.92;;;;;;;36.97;33.84;96781.88;5057039;28;20168;-60
2023/08/24 11:33:34;;;;;;;2.28;2.28;;;;;;;36.10;34.36;96715.63;5045192;28;20123;-64
2023/08/24 11:36:03;;;;;;;1.95;1.95;;;;;;;36.19;34.40;96781.56;5037682;28;20044;-72
2023/08/24 11:38:38;;;;;;;2.08;2.08;;;;;;;35.53;35.08;96644.94;5025617;28;20040;-70